Time;durP1;ratioP1;P1;durP2;ratioP2;P2;SDS_P1;SDS_P2;PMS_P1;PMS_P2;Temp;Humidity;BMP_temperature;BMP_pressure;BME280_temperature;BME280_humidity;BME280_pressure;Samples;Min_cycle;Max_cycle;Signal;HPM_P1;HPM_P2
2022/03/18 00:00:17;;;;;;;21.23;8.30;;;;;;;-2.42;45.60;101977.14;1666227;85;21064;-72
2022/03/18 00:02:46;;;;;;;18.80;7.72;;;;;;;-2.48;45.64;101974.64;1658941;84;21265;-72
2022/03/18 00:05:13;;;;;;;24.82;9.65;;;;;;;-2.51;45.73;101978.19;1670055;85;20993;-75
2022/03/18 00:07:41;;;;;;;14.40;7.15;;;;;;;-2.53;45.75;101981.56;1667412;85;21538;-73
2022/03/18 00:10:12;;;;;;;15.68;7.00;;;;;;;-2.59;45.90;101978.53;1657408;84;21079;-73
2022/03/18 00:12:39;;;;;;;23.30;8.93;;;;;;;-2.64;45.99;101976.85;1668478;85;20953;-77
2022/03/18 00:15:08;;;;;;;18.73;7.40;;;;;;;-2.67;46.05;101978.55;1662594;84;21277;-72
2022/03/18 00:17:37;;;;;;;14.43;6.40;;;;;;;-2.76;46.06;101982.28;1675772;85;21529;-72
2022/03/18 00:20:06;;;;;;;13.10;6.70;;;;;;;-2.84;46.24;101984.47;1666123;85;20986;-72
2022/03/18 00:22:33;;;;;;;14.98;7.10;;;;;;;-2.91;46.33;101985.66;1668646;84;21239;-71
2022/03/18 00:25:04;;;;;;;14.60;7.03;;;;;;;-3.00;46.49;101984.80;1669093;85;21064;-71
2022/03/18 00:27:32;;;;;;;14.50;6.47;;;;;;;-3.03;46.90;101994.59;1662922;84;21194;-73
2022/03/18 00:30:01;;;;;;;12.65;6.33;;;;;;;-3.07;47.01;101988.69;1665192;84;21433;-73
2022/03/18 00:32:29;;;;;;;15.88;7.15;;;;;;;-3.09;47.25;101991.23;1663327;84;20957;-72
2022/03/18 00:34:58;;;;;;;17.40;6.95;;;;;;;-3.12;47.51;101988.88;1659650;85;21100;-73
2022/03/18 00:37:25;;;;;;;16.00;7.03;;;;;;;-3.11;47.75;101988.70;1652805;84;21001;-71
2022/03/18 00:39:53;;;;;;;17.02;7.60;;;;;;;-3.08;47.85;101991.55;1674337;84;21078;-73
2022/03/18 00:42:24;;;;;;;14.40;7.05;;;;;;;-3.04;47.86;101994.76;1656143;85;21184;-67
2022/03/18 00:44:51;;;;;;;16.25;7.67;;;;;;;-3.04;47.85;101990.72;1704613;83;21084;-67
2022/03/18 00:52:51;;;;;;;13.05;6.72;;;;;;;-2.99;48.11;101993.75;1708555;83;21214;-69
2022/03/18 00:55:18;;;;;;;15.78;7.47;;;;;;;-2.99;48.09;102003.20;1707962;83;20949;-69
2022/03/18 00:57:46;;;;;;;11.75;6.80;;;;;;;-2.97;48.12;102007.92;1671745;85;21028;-66
2022/03/18 01:00:14;;;;;;;13.13;6.30;;;;;;;-2.98;48.06;101998.98;1676477;85;21029;-68
2022/03/18 01:02:41;;;;;;;18.92;6.90;;;;;;;-2.99;48.15;102006.75;1670619;84;21028;-67
2022/03/18 01:05:09;;;;;;;15.78;7.53;;;;;;;-3.00;48.10;102014.48;1657168;85;21191;-69
2022/03/18 01:07:36;;;;;;;18.67;6.80;;;;;;;-3.03;48.15;102005.38;1660026;85;21063;-68
2022/03/18 01:10:04;;;;;;;15.65;7.35;;;;;;;-3.04;48.27;102006.41;1706657;83;21040;-68
2022/03/18 01:12:30;;;;;;;15.40;7.67;;;;;;;-3.07;48.24;102006.22;1707494;83;21008;-69
2022/03/18 01:14:57;;;;;;;18.60;7.85;;;;;;;-3.08;48.38;102011.78;1655120;84;20954;-70
2022/03/18 01:17:27;;;;;;;17.32;7.97;;;;;;;-3.10;48.40;102012.45;1668273;85;20949;-68
2022/03/18 01:19:57;;;;;;;14.87;7.40;;;;;;;-3.13;48.53;102008.25;1670047;84;21578;-69
2022/03/18 01:22:27;;;;;;;21.37;7.70;;;;;;;-3.13;48.54;102010.95;1653635;85;21009;-69
2022/03/18 01:24:55;;;;;;;17.55;7.25;;;;;;;-3.15;48.57;102015.66;1664881;84;21774;-68
2022/03/18 01:27:22;;;;;;;14.85;7.62;;;;;;;-3.18;48.56;102015.50;1662377;85;21088;-69
2022/03/18 01:29:49;;;;;;;17.57;7.87;;;;;;;-3.20;48.61;102022.91;1674763;85;21359;-67
2022/03/18 01:32:16;;;;;;;14.85;7.05;;;;;;;-3.22;48.68;102011.44;1659499;85;21574;-67
2022/03/18 01:34:44;;;;;;;15.50;6.92;;;;;;;-3.24;48.72;102014.80;1651578;84;21027;-68
2022/03/18 01:37:11;;;;;;;14.10;6.40;;;;;;;-3.26;49.03;102022.23;1659372;85;21202;-68
2022/03/18 01:39:38;;;;;;;14.05;6.25;;;;;;;-3.24;48.98;102018.84;1663388;85;21084;-71
2022/03/18 01:42:05;;;;;;;15.03;6.37;;;;;;;-3.23;48.94;102022.39;1654626;85;21248;-70
2022/03/18 01:44:41;;;;;;;14.20;6.70;;;;;;;-3.25;48.87;102022.56;1665659;85;20946;-68
2022/03/18 01:47:13;;;;;;;13.55;6.08;;;;;;;-3.24;48.82;102022.07;1679840;83;21056;-68
2022/03/18 01:49:40;;;;;;;19.10;7.10;;;;;;;-3.25;48.81;102023.91;1664803;85;21067;-69
2022/03/18 01:52:11;;;;;;;15.93;6.03;;;;;;;-3.28;48.64;102026.09;1711281;82;21280;-68
2022/03/18 01:54:50;;;;;;;13.00;7.12;;;;;;;-3.31;48.75;102029.98;1711269;82;21832;-69
2022/03/18 01:57:31;;;;;;;17.92;6.65;;;;;;;-3.33;48.87;102030.64;1738293;81;21045;-70
2022/03/18 01:59:59;;;;;;;13.32;6.95;;;;;;;-3.35;48.82;102035.35;1712159;82;21564;-71
2022/03/18 02:02:27;;;;;;;14.80;6.58;;;;;;;-3.47;48.90;102028.92;1716202;82;21063;-71
2022/03/18 02:04:55;;;;;;;12.73;6.90;;;;;;;-3.52;49.14;102033.97;1696950;83;20962;-69
2022/03/18 02:07:22;;;;;;;10.60;6.42;;;;;;;-3.53;49.36;102033.61;1685382;83;21649;-69
2022/03/18 02:09:52;;;;;;;16.02;6.97;;;;;;;-3.56;49.42;102036.14;1696226;83;21048;-69
2022/03/18 02:12:20;;;;;;;14.25;6.75;;;;;;;-3.57;49.69;102037.66;1700262;83;21087;-69
2022/03/18 02:14:50;;;;;;;16.50;6.75;;;;;;;-3.59;49.72;102038.31;1672541;83;21194;-70
2022/03/18 02:17:18;;;;;;;15.13;6.87;;;;;;;-3.61;49.71;102038.98;1737244;82;20965;-68
2022/03/18 02:19:47;;;;;;;11.03;6.60;;;;;;;-3.65;49.98;102030.89;1703753;83;21113;-68
2022/03/18 02:22:20;;;;;;;16.23;7.05;;;;;;;-3.65;50.10;102043.84;1707733;83;21100;-69
2022/03/18 02:24:52;;;;;;;12.33;6.03;;;;;;;-3.65;50.08;102038.45;1736098;81;21138;-68
2022/03/18 02:27:19;;;;;;;11.75;6.10;;;;;;;-3.68;50.03;102043.69;1737484;81;21001;-70
2022/03/18 02:29:47;;;;;;;15.72;7.40;;;;;;;-3.68;50.12;102045.52;1737278;81;21023;-68
2022/03/18 02:32:18;;;;;;;13.45;6.40;;;;;;;-3.70;50.21;102049.73;1738675;81;21227;-70
2022/03/18 02:34:45;;;;;;;14.63;6.65;;;;;;;-3.76;50.14;102054.44;1737994;81;20945;-69
2022/03/18 02:37:12;;;;;;;14.15;6.70;;;;;;;-3.80;50.20;102055.75;1738882;82;21068;-69
2022/03/18 02:39:40;;;;;;;12.85;6.20;;;;;;;-3.86;50.34;102058.61;1699565;82;21072;-69
2022/03/18 02:42:09;;;;;;;14.60;6.60;;;;;;;-3.89;50.27;102059.43;1739576;82;21095;-69
2022/03/18 02:44:37;;;;;;;16.27;7.50;;;;;;;-4.00;50.38;102056.01;1717730;82;21894;-69
2022/03/18 02:47:05;;;;;;;16.45;6.72;;;;;;;-4.02;50.54;102056.66;1739371;81;20945;-71
2022/03/18 02:49:35;;;;;;;11.48;6.62;;;;;;;-4.06;50.44;102066.09;1738746;81;20918;-68
2022/03/18 02:52:03;;;;;;;13.48;6.70;;;;;;;-4.12;50.69;102064.86;1739793;81;21095;-68
2022/03/18 02:54:33;;;;;;;13.98;6.50;;;;;;;-4.14;50.86;102069.55;1735752;81;21016;-69
2022/03/18 02:57:01;;;;;;;13.68;6.25;;;;;;;-4.13;51.05;102071.76;1706264;83;21108;-69
2022/03/18 02:59:31;;;;;;;9.98;5.65;;;;;;;-4.12;50.97;102076.98;1738771;81;20925;-70
2022/03/18 03:01:59;;;;;;;12.23;5.72;;;;;;;-4.17;50.87;102084.20;1737590;81;21000;-70
2022/03/18 03:04:26;;;;;;;12.15;5.62;;;;;;;-4.21;51.06;102081.96;1736582;81;21411;-70
2022/03/18 03:09:38;;;;;;;11.83;5.80;;;;;;;-4.22;51.33;102083.83;1736406;82;21320;-67
2022/03/18 03:12:09;;;;;;;12.63;5.92;;;;;;;-4.23;51.55;102093.41;1739273;82;21004;-71
2022/03/18 03:14:37;;;;;;;11.00;4.60;;;;;;;-4.23;51.63;102086.16;1687397;83;21056;-67
2022/03/18 03:17:08;;;;;;;11.60;5.12;;;;;;;-4.20;51.79;102087.71;1692971;83;20955;-69
2022/03/18 03:19:36;;;;;;;9.75;4.45;;;;;;;-4.19;51.77;102092.94;1695515;83;21007;-71
2022/03/18 03:22:04;;;;;;;11.38;5.58;;;;;;;-4.17;51.79;102097.67;1689369;83;21026;-68
2022/03/18 03:24:30;;;;;;;12.25;5.20;;;;;;;-4.17;51.67;102099.50;1694117;83;21145;-71
2022/03/18 03:27:01;;;;;;;20.08;5.30;;;;;;;-4.18;51.79;102097.30;1696807;83;20972;-71
2022/03/18 03:29:28;;;;;;;10.85;5.05;;;;;;;-4.15;51.89;102094.81;1699123;83;21256;-69
2022/03/18 03:31:55;;;;;;;9.63;4.87;;;;;;;-4.13;51.72;102097.34;1703471;83;21057;-69
2022/03/18 03:34:22;;;;;;;15.25;7.90;;;;;;;-4.21;51.78;102098.97;1736722;81;21581;-68
2022/03/18 03:36:49;;;;;;;9.18;4.97;;;;;;;-4.28;51.80;102101.45;1740807;81;21058;-69
2022/03/18 03:39:16;;;;;;;9.83;5.00;;;;;;;-4.30;52.00;102099.41;1739056;81;21513;-69
2022/03/18 03:41:43;;;;;;;10.28;5.65;;;;;;;-4.31;51.98;102103.61;1737394;82;21225;-70
2022/03/18 03:44:13;;;;;;;11.90;5.53;;;;;;;-4.38;51.94;102104.73;1737625;81;21065;-71
2022/03/18 03:46:41;;;;;;;15.08;5.92;;;;;;;-4.56;52.13;102106.98;1717294;82;21626;-69
2022/03/18 03:49:08;;;;;;;9.75;5.30;;;;;;;-4.71;52.42;102108.03;1726484;82;21089;-69
2022/03/18 03:51:35;;;;;;;10.58;4.97;;;;;;;-4.83;52.68;102119.52;1716655;82;21051;-69
2022/03/18 03:54:01;;;;;;;16.95;5.80;;;;;;;-4.94;53.01;102117.89;1705708;82;21024;-68
2022/03/18 03:56:28;;;;;;;13.38;5.40;;;;;;;-5.05;53.31;102112.73;1738206;82;21069;-67
2022/03/18 03:58:57;;;;;;;14.83;6.12;;;;;;;-5.08;53.75;102113.88;1735514;81;21704;-70
2022/03/18 04:01:25;;;;;;;9.85;5.72;;;;;;;-5.02;53.91;102120.50;1739441;82;20992;-70
2022/03/18 04:03:53;;;;;;;15.43;6.47;;;;;;;-5.04;54.05;102123.83;1736928;81;20953;-69
2022/03/18 04:06:21;;;;;;;11.48;5.92;;;;;;;-5.05;54.33;102125.66;1739599;81;20997;-68
2022/03/18 04:08:48;;;;;;;10.58;5.55;;;;;;;-5.00;54.36;102127.92;1739367;81;21028;-68
2022/03/18 04:11:17;;;;;;;12.90;5.53;;;;;;;-4.96;54.41;102127.95;1705344;83;21061;-70
2022/03/18 04:13:48;;;;;;;15.60;6.45;;;;;;;-4.92;54.52;102126.66;1702367;83;21141;-71
2022/03/18 04:16:17;;;;;;;14.68;6.75;;;;;;;-4.86;54.64;102129.22;1709302;82;21021;-69
2022/03/18 04:18:45;;;;;;;12.37;6.12;;;;;;;-4.80;54.57;102131.31;1705838;83;20996;-69
2022/03/18 04:21:14;;;;;;;16.82;6.92;;;;;;;-4.75;54.52;102140.27;1692048;83;21076;-68
2022/03/18 04:23:44;;;;;;;12.98;6.33;;;;;;;-4.71;54.64;102142.16;1726081;82;20909;-68
2022/03/18 04:26:12;;;;;;;14.80;6.75;;;;;;;-4.64;54.61;102142.72;1680405;83;21052;-69
2022/03/18 04:28:39;;;;;;;14.23;6.12;;;;;;;-4.59;54.33;102147.63;1698642;83;21544;-69
2022/03/18 04:31:08;;;;;;;12.33;6.20;;;;;;;-4.58;54.47;102150.69;1700010;83;21037;-67
2022/03/18 04:33:36;;;;;;;17.48;7.42;;;;;;;-4.52;54.45;102148.72;1695353;83;20933;-71
2022/03/18 04:36:04;;;;;;;13.15;6.47;;;;;;;-4.47;54.44;102148.77;1695014;83;21038;-70
2022/03/18 04:38:30;;;;;;;14.47;6.12;;;;;;;-4.44;54.39;102145.27;1702995;83;21000;-69
2022/03/18 04:41:00;;;;;;;16.17;7.08;;;;;;;-4.37;54.40;102154.06;1704376;83;21111;-70
2022/03/18 04:43:28;;;;;;;13.43;6.35;;;;;;;-4.31;54.39;102154.28;1689048;83;21082;-69
2022/03/18 04:45:55;;;;;;;11.63;5.72;;;;;;;-4.24;54.41;102155.85;1689920;83;20952;-70
2022/03/18 04:48:23;;;;;;;16.75;7.95;;;;;;;-4.15;54.42;102159.45;1696689;83;22163;-70
2022/03/18 04:50:53;;;;;;;13.95;6.60;;;;;;;-4.09;54.39;102161.52;1703301;83;21036;-71
2022/03/18 04:53:21;;;;;;;10.98;5.92;;;;;;;-4.01;54.31;102165.28;1687070;83;20969;-69
2022/03/18 04:55:49;;;;;;;13.53;6.10;;;;;;;-3.93;54.24;102171.58;1692815;83;21091;-68
2022/03/18 04:58:16;;;;;;;14.63;6.10;;;;;;;-3.84;54.05;102175.14;1693628;83;21182;-69
2022/03/18 05:00:42;;;;;;;15.80;6.08;;;;;;;-3.76;53.92;102177.06;1706398;83;21129;-71
2022/03/18 05:03:11;;;;;;;13.98;6.22;;;;;;;-3.69;53.82;102180.83;1689971;83;21021;-71
2022/03/18 05:05:40;;;;;;;11.45;5.80;;;;;;;-3.60;53.69;102175.48;1692199;83;21166;-69
2022/03/18 05:08:10;;;;;;;14.00;6.03;;;;;;;-3.54;53.49;102177.52;1702405;83;21104;-68
2022/03/18 05:10:38;;;;;;;15.05;5.67;;;;;;;-3.50;53.27;102178.91;1737593;81;21032;-67
2022/03/18 05:13:04;;;;;;;12.43;5.97;;;;;;;-3.46;53.17;102178.05;1692301;83;21289;-70
2022/03/18 05:15:33;;;;;;;16.82;6.60;;;;;;;-3.40;53.15;102176.08;1694783;83;20960;-69
2022/03/18 05:18:00;;;;;;;14.13;6.92;;;;;;;-3.31;52.93;102180.48;1688572;83;21010;-77
2022/03/18 05:20:29;;;;;;;12.78;6.05;;;;;;;-3.24;52.76;102183.91;1706000;83;21187;-72
2022/03/18 05:22:56;;;;;;;8.85;6.12;;;;;;;-3.20;52.66;102182.06;1697889;83;21078;-73
2022/03/18 05:25:25;;;;;;;9.45;5.75;;;;;;;-3.15;52.49;102178.87;1689358;83;21445;-79
2022/03/18 05:27:53;;;;;;;13.35;6.87;;;;;;;-3.12;52.03;102183.94;1684211;83;21411;-71
2022/03/18 05:30:21;;;;;;;21.60;7.83;;;;;;;-3.13;52.02;102194.89;1701978;83;21060;-73
2022/03/18 05:32:48;;;;;;;12.47;5.53;;;;;;;-3.09;52.09;102182.78;1696423;83;21161;-76
2022/03/18 05:35:18;;;;;;;14.03;5.55;;;;;;;-3.03;52.12;102190.22;1689705;83;21069;-73
2022/03/18 05:37:44;;;;;;;12.05;6.30;;;;;;;-2.95;51.90;102193.47;1705543;83;21234;-72
2022/03/18 05:40:12;;;;;;;12.50;6.25;;;;;;;-2.89;51.75;102194.64;1693079;83;21084;-69
2022/03/18 05:42:40;;;;;;;13.05;6.10;;;;;;;-2.83;51.57;102192.63;1738633;81;21029;-75
2022/03/18 05:45:08;;;;;;;15.20;7.45;;;;;;;-2.76;51.42;102199.06;1741374;81;21003;-72
2022/03/18 05:47:34;;;;;;;12.65;6.28;;;;;;;-2.70;51.29;102198.42;1739190;81;20897;-75
2022/03/18 05:53:45;;;;;;;14.98;6.53;;;;;;;-2.54;50.92;102207.55;1705213;83;20886;-71
2022/03/18 05:59:00;;;;;;;14.45;6.47;;;;;;;-2.46;50.54;102207.55;1737378;82;21079;-72
2022/03/18 06:01:29;;;;;;;18.17;6.45;;;;;;;-2.40;50.39;102214.16;1739328;82;21403;-67
2022/03/18 06:03:58;;;;;;;11.18;5.42;;;;;;;-2.36;50.29;102218.72;1739070;82;21307;-70
2022/03/18 06:06:32;;;;;;;15.25;6.78;;;;;;;-2.31;50.26;102227.17;1738525;82;21410;-72
2022/03/18 06:11:49;;;;;;;14.47;6.03;;;;;;;-2.18;49.96;102229.89;1737495;82;21017;-69
2022/03/18 06:14:22;;;;;;;10.72;5.85;;;;;;;-2.12;49.71;102230.56;1739921;82;21481;-71
2022/03/18 06:16:56;;;;;;;11.65;5.85;;;;;;;-2.08;49.71;102235.95;1737516;82;21169;-71
2022/03/18 06:19:27;;;;;;;19.05;6.20;;;;;;;-2.02;49.67;102238.50;1718191;82;21026;-74
2022/03/18 06:21:57;;;;;;;12.20;6.75;;;;;;;-1.99;49.30;102235.45;1738436;81;20953;-71
2022/03/18 06:24:24;;;;;;;15.70;5.60;;;;;;;-1.97;49.13;102245.09;1737700;82;21470;-72
2022/03/18 06:26:51;;;;;;;14.43;6.37;;;;;;;-1.93;49.11;102246.10;1688581;83;21066;-73
2022/03/18 06:29:19;;;;;;;16.02;6.30;;;;;;;-1.89;49.30;102244.73;1738171;82;21177;-71
2022/03/18 06:31:47;;;;;;;13.40;5.58;;;;;;;-1.81;49.00;102243.91;1742348;82;21031;-72
2022/03/18 06:34:14;;;;;;;15.78;6.00;;;;;;;-1.76;48.78;102238.83;1734318;82;21481;-78
2022/03/18 06:36:41;;;;;;;13.95;6.15;;;;;;;-1.74;48.94;102243.04;1727342;82;21383;-72
2022/03/18 06:39:09;;;;;;;12.78;5.60;;;;;;;-1.73;48.44;102240.69;1707940;83;21056;-73
2022/03/18 06:41:37;;;;;;;10.82;6.05;;;;;;;-1.76;48.21;102239.69;1687169;84;21640;-76
2022/03/18 06:44:05;;;;;;;15.70;6.00;;;;;;;-1.75;48.55;102246.77;1710672;83;20986;-73
2022/03/18 06:46:33;;;;;;;12.60;5.60;;;;;;;-1.68;48.74;102248.28;1717852;83;20961;-75
2022/03/18 06:49:01;;;;;;;13.22;5.87;;;;;;;-1.68;48.26;102248.28;1741199;82;21161;-77
2022/03/18 06:51:28;;;;;;;16.05;5.65;;;;;;;-1.70;48.37;102247.60;1683471;83;21557;-76
2022/03/18 06:53:55;;;;;;;23.00;5.97;;;;;;;-1.65;48.19;102249.78;1742503;82;21878;-76
2022/03/18 06:56:22;;;;;;;8.35;4.60;;;;;;;-1.65;48.42;102258.75;1681353;83;20980;-73
2022/03/18 06:58:49;;;;;;;12.40;6.10;;;;;;;-1.58;47.97;102252.15;1741046;82;21470;-73
2022/03/18 07:01:16;;;;;;;11.48;6.10;;;;;;;-1.65;48.05;102248.44;1737517;82;21511;-76
2022/03/18 07:03:42;;;;;;;14.23;6.22;;;;;;;-1.61;48.44;102249.80;1737814;82;20922;-75
2022/03/18 07:06:10;;;;;;;13.30;6.05;;;;;;;-1.50;48.55;102249.95;1729142;82;21160;-74
2022/03/18 07:08:36;;;;;;;11.83;5.55;;;;;;;-1.39;48.66;102246.87;1722495;82;20952;-75
2022/03/18 07:11:03;;;;;;;12.88;5.92;;;;;;;-1.29;47.89;102252.59;1740630;82;20984;-75
2022/03/18 07:13:33;;;;;;;14.78;6.58;;;;;;;-1.38;47.83;102249.91;1720566;82;20988;-78
2022/03/18 07:17:55;;;;;;;13.45;6.10;;;;;;;-1.45;47.94;102254.84;1727299;82;21054;-77
2022/03/18 07:18:31;;;;;;;12.15;5.70;;;;;;;-1.43;48.07;102260.41;1688106;83;21160;-74
2022/03/18 07:21:03;;;;;;;13.62;6.35;;;;;;;-1.36;48.42;102263.27;1720852;82;20868;-73
2022/03/18 07:23:32;;;;;;;15.93;6.58;;;;;;;-1.20;48.60;102267.80;1726279;82;20960;-75
2022/03/18 07:26:01;;;;;;;13.28;6.03;;;;;;;-1.03;48.16;102266.39;1732150;82;21031;-72
2022/03/18 07:28:29;;;;;;;13.00;6.33;;;;;;;-0.96;48.08;102266.53;1725650;82;21553;-69
2022/03/18 07:31:31;;;;;;;17.07;5.72;;;;;;;-0.87;47.51;102262.79;1709458;83;21100;-71
2022/03/18 07:33:58;;;;;;;18.67;6.00;;;;;;;-0.90;47.56;102264.47;1736188;82;20934;-72
2022/03/18 07:36:26;;;;;;;10.80;5.72;;;;;;;-0.87;47.44;102264.14;1691942;83;21150;-73
2022/03/18 07:39:37;;;;;;;16.30;6.40;;;;;;;-0.80;47.88;102266.45;1737900;82;21437;-74
2022/03/18 07:42:22;;;;;;;13.48;5.70;;;;;;;-0.66;47.69;102270.80;1733230;82;20977;-76
2022/03/18 07:44:49;;;;;;;14.45;5.58;;;;;;;-0.47;47.71;102265.95;1689856;83;21097;-73
2022/03/18 07:47:17;;;;;;;12.28;5.58;;;;;;;-0.43;47.08;102264.59;1737848;82;20977;-74
2022/03/18 07:49:45;;;;;;;13.15;6.53;;;;;;;-0.34;47.20;102276.23;1739172;82;21072;-72
2022/03/18 07:52:19;;;;;;;18.85;7.00;;;;;;;-0.26;46.82;102269.39;1720295;82;21031;-71
2022/03/18 07:54:48;;;;;;;12.85;5.90;;;;;;;-0.16;46.80;102266.44;1690667;83;21501;-71
2022/03/18 07:57:15;;;;;;;12.73;6.37;;;;;;;-0.16;45.73;102271.86;1741483;82;21503;-72
2022/03/18 07:59:42;;;;;;;13.28;6.50;;;;;;;-0.47;45.58;102271.38;1723456;82;20972;-74
2022/03/18 08:02:14;;;;;;;11.88;6.08;;;;;;;-0.77;46.32;102271.52;1729485;82;20963;-74
2022/03/18 08:04:41;;;;;;;11.55;6.50;;;;;;;-0.72;46.97;102269.66;1704931;82;21013;-74
2022/03/18 08:07:16;;;;;;;10.28;5.58;;;;;;;-0.52;47.17;102273.27;1721882;82;21106;-73
2022/03/18 08:09:47;;;;;;;8.60;4.95;;;;;;;-0.41;46.57;102277.45;1747751;81;21481;-76
2022/03/18 08:12:20;;;;;;;12.37;5.83;;;;;;;-0.44;46.63;102271.86;1743803;81;20944;-73
2022/03/18 08:14:49;;;;;;;15.23;6.47;;;;;;;-0.57;45.93;102273.81;1743359;81;20987;-74
2022/03/18 08:17:17;;;;;;;11.55;5.78;;;;;;;-0.77;46.78;102272.88;1715004;82;21108;-74
2022/03/18 08:19:47;;;;;;;12.33;6.20;;;;;;;-0.66;47.23;102270.80;1741648;81;21012;-74
2022/03/18 08:22:14;;;;;;;12.37;6.08;;;;;;;-0.47;47.32;102279.00;1741252;81;21555;-75
2022/03/18 08:24:42;;;;;;;17.92;6.55;;;;;;;-0.25;47.30;102275.98;1747861;81;21426;-72
2022/03/18 08:27:09;;;;;;;12.88;6.33;;;;;;;0.01;47.21;102270.37;1742811;81;20985;-70
2022/03/18 08:29:36;;;;;;;14.15;6.47;;;;;;;0.24;46.84;102275.27;1745156;81;20995;-72
2022/03/18 08:32:06;;;;;;;18.12;6.10;;;;;;;0.44;46.60;102269.85;1742907;81;20944;-72
2022/03/18 08:34:34;;;;;;;11.75;6.33;;;;;;;0.61;45.85;102275.97;1745322;81;21226;-71
2022/03/18 08:37:05;;;;;;;13.60;5.40;;;;;;;0.73;45.63;102273.09;1742176;81;21027;-71
2022/03/18 08:39:33;;;;;;;11.30;5.75;;;;;;;0.82;44.51;102268.43;1742068;81;21544;-72
2022/03/18 08:42:05;;;;;;;12.35;5.22;;;;;;;0.73;44.93;102266.84;1738130;81;20909;-71
2022/03/18 08:44:34;;;;;;;12.20;6.00;;;;;;;0.81;44.96;102274.90;1743916;81;20905;-72
2022/03/18 08:47:07;;;;;;;10.32;6.28;;;;;;;0.97;44.91;102271.67;1743492;81;21084;-71
2022/03/18 08:49:39;;;;;;;17.20;5.60;;;;;;;1.05;44.12;102270.22;1742294;81;21037;-69
2022/03/18 08:52:06;;;;;;;7.78;4.58;;;;;;;1.02;44.19;102275.17;1744900;81;21429;-71
2022/03/18 08:54:35;;;;;;;15.35;5.15;;;;;;;1.02;43.88;102275.17;1744841;81;21469;-72
2022/03/18 08:57:10;;;;;;;8.00;5.20;;;;;;;1.04;44.25;102273.94;1740170;81;21103;-71
2022/03/18 08:59:44;;;;;;;11.70;5.50;;;;;;;1.23;44.21;102277.64;1741633;81;20977;-69
2022/03/18 09:02:18;;;;;;;12.75;7.85;;;;;;;1.39;43.95;102273.86;1741481;81;21529;-75
2022/03/18 09:04:48;;;;;;;9.53;4.72;;;;;;;1.57;44.00;102267.48;1744666;81;20976;-75
2022/03/18 09:07:15;;;;;;;13.40;5.78;;;;;;;1.69;42.26;102274.62;1747320;81;21035;-69
2022/03/18 09:09:47;;;;;;;11.00;5.95;;;;;;;1.42;42.62;102274.32;1744772;81;21062;-73
2022/03/18 09:12:18;;;;;;;9.15;5.47;;;;;;;1.49;43.26;102262.67;1742803;81;21279;-75
2022/03/18 09:14:45;;;;;;;17.80;6.10;;;;;;;1.66;42.88;102260.56;1733632;82;21086;-74
2022/03/18 09:17:13;;;;;;;9.65;5.35;;;;;;;1.69;42.55;102265.10;1683021;84;21040;-75
2022/03/18 09:19:47;;;;;;;11.90;5.05;;;;;;;1.67;42.17;102275.33;1687100;83;20969;-71
2022/03/18 09:22:19;;;;;;;15.60;6.12;;;;;;;1.55;42.37;102267.36;1735889;81;21052;-74
2022/03/18 09:24:50;;;;;;;9.35;5.42;;;;;;;1.60;42.72;102263.55;1741484;81;20980;-73
2022/03/18 09:27:19;;;;;;;8.83;5.20;;;;;;;1.72;42.72;102260.32;1741538;81;21052;-73
2022/03/18 09:29:48;;;;;;;12.43;5.92;;;;;;;1.88;42.41;102265.50;1740064;81;21032;-75
2022/03/18 09:32:15;;;;;;;9.70;5.50;;;;;;;1.94;42.61;102256.55;1737958;82;20980;-71
2022/03/18 09:34:49;;;;;;;12.33;6.58;;;;;;;2.11;42.32;102257.67;1738770;81;21041;-69
2022/03/18 09:44:10;;;;;;;11.35;5.45;;;;;;;2.60;41.63;102253.74;1662667;83;21112;-72
2022/03/18 09:46:52;;;;;;;13.48;5.75;;;;;;;2.82;41.36;102258.26;1740609;82;21059;-73
2022/03/18 09:49:22;;;;;;;13.62;5.37;;;;;;;2.94;41.06;102251.72;1742584;81;20925;-66
2022/03/18 09:51:58;;;;;;;10.98;5.40;;;;;;;3.10;41.14;102243.75;1689831;83;20989;-72
2022/03/18 09:54:26;;;;;;;13.32;5.33;;;;;;;3.28;40.71;102250.00;1739882;82;21465;-72
2022/03/18 09:56:54;;;;;;;10.88;4.15;;;;;;;3.39;39.82;102250.80;1741656;82;20957;-72
2022/03/18 09:59:23;;;;;;;6.92;4.20;;;;;;;3.50;39.26;102249.85;1721020;82;20972;-72
2022/03/18 10:01:51;;;;;;;6.65;3.75;;;;;;;3.48;37.70;102244.61;1710055;83;21560;-69
2022/03/18 10:04:20;;;;;;;8.03;4.65;;;;;;;3.21;37.93;102262.23;1726205;82;21008;-69
2022/03/18 10:06:49;;;;;;;11.90;4.67;;;;;;;3.24;38.00;102259.64;1742531;82;20967;-68
2022/03/18 10:09:41;;;;;;;;;;;;;;;;;;;;;
2022/03/18 10:11:59;;;;;;;10.43;4.92;;;;;;;3.47;37.51;102248.91;1739314;82;21911;-68
2022/03/18 10:14:28;;;;;;;9.90;5.20;;;;;;;3.55;37.14;102244.63;1693440;84;21557;-70
2022/03/18 10:17:02;;;;;;;10.90;5.58;;;;;;;3.58;36.89;102247.48;1740277;82;20917;-71
2022/03/18 10:19:29;;;;;;;9.98;5.17;;;;;;;3.63;36.89;102243.61;1738548;82;28079;-70
2022/03/18 10:22:05;;;;;;;19.00;6.12;;;;;;;3.71;36.81;102247.51;1741534;82;20960;-71
2022/03/18 10:24:36;;;;;;;11.12;5.33;;;;;;;3.75;36.77;102239.76;1737663;82;21040;-70
2022/03/18 10:27:20;;;;;;;12.15;6.72;;;;;;;3.74;36.61;102238.05;1697366;84;20929;-70
2022/03/18 10:29:53;;;;;;;7.70;4.47;;;;;;;3.79;36.72;102238.28;1704045;83;21270;-69
2022/03/18 10:32:28;;;;;;;;;;;;;;;3.76;35.62;102245.00;1695866;84;21519;-68
2022/03/18 10:37:53;;;;;;;8.40;5.10;;;;;;;3.58;35.54;102241.52;1713361;83;20992;-71
2022/03/18 10:40:35;;;;;;;12.23;6.35;;;;;;;3.55;36.01;102242.44;1739862;82;20913;-69
2022/03/18 10:43:04;;;;;;;13.75;5.33;;;;;;;3.67;36.22;102238.59;1713955;82;21033;-70
2022/03/18 10:45:31;;;;;;;9.73;4.65;;;;;;;3.82;36.38;102232.95;1733212;82;21170;-72
2022/03/18 10:48:15;;;;;;;13.28;4.78;;;;;;;3.84;35.28;102242.59;1716195;82;21178;-72
2022/03/18 10:50:45;;;;;;;10.85;5.65;;;;;;;3.61;35.27;102235.64;1738871;82;20946;-73
2022/03/18 10:53:11;;;;;;;13.88;5.83;;;;;;;3.58;34.63;102237.94;1737831;82;21095;-71
2022/03/18 10:55:46;;;;;;;18.07;7.05;;;;;;;3.35;35.32;102241.33;1682260;83;21124;-71
2022/03/18 10:58:15;;;;;;;11.65;5.72;;;;;;;3.44;36.08;102242.51;1703762;83;21069;-71
2022/03/18 11:00:51;;;;;;;12.20;5.55;;;;;;;3.60;35.80;102240.76;1701696;83;20986;-71
2022/03/18 11:03:20;;;;;;;15.00;6.90;;;;;;;3.80;35.89;102239.13;1694996;83;21167;-69
2022/03/18 11:05:51;;;;;;;40.17;16.57;;;;;;;4.01;35.81;102242.17;1677525;83;21052;-70
2022/03/18 11:08:27;;;;;;;51.13;22.48;;;;;;;4.16;35.25;102235.17;1677481;83;21069;-71
2022/03/18 11:11:15;;;;;;;53.98;22.15;;;;;;;3.92;33.43;102232.02;1742119;81;20941;-70
2022/03/18 11:14:03;;;;;;;39.90;17.23;;;;;;;3.47;33.64;102235.27;1737239;82;20949;-71
2022/03/18 11:16:36;;;;;;;36.68;15.10;;;;;;;3.28;34.82;102241.82;1717880;82;20933;-69
2022/03/18 11:19:08;;;;;;;28.05;11.78;;;;;;;3.49;35.52;102231.83;1739668;82;21401;-71
2022/03/18 11:21:38;;;;;;;27.32;11.10;;;;;;;3.75;35.31;102237.03;1740061;82;21088;-70
2022/03/18 11:24:14;;;;;;;35.23;14.50;;;;;;;3.99;35.05;102232.02;1692741;83;20934;-69
2022/03/18 11:26:49;;;;;;;35.03;15.30;;;;;;;4.19;33.89;102232.53;1721974;82;20997;-72
2022/03/18 11:29:23;;;;;;;42.05;17.35;;;;;;;3.99;33.68;102222.47;1697441;83;21092;-71
2022/03/18 11:32:16;;;;;;;41.33;16.90;;;;;;;3.93;34.19;102215.95;1707709;83;21036;-69
2022/03/18 11:34:52;;;;;;;32.88;15.25;;;;;;;4.01;34.06;102217.63;1738839;82;20826;-71
2022/03/18 11:37:40;;;;;;;;;;;;;;;;;;;;;
2022/03/18 11:40:27;;;;;;;25.00;12.60;;;;;;;4.41;34.46;102214.56;1716158;81;20984;-69
2022/03/18 11:42:55;;;;;;;28.98;12.25;;;;;;;4.39;33.46;102220.23;1695902;84;21013;-71
2022/03/18 11:45:42;;;;;;;25.70;12.35;;;;;;;4.35;32.71;102208.89;1738199;82;20942;-72
2022/03/18 11:48:36;;;;;;;27.17;11.03;;;;;;;4.19;33.05;102210.19;1685237;83;21253;-71
2022/03/18 11:51:39;;;;;;;24.60;9.85;;;;;;;4.10;32.23;102206.83;1731863;82;20971;-69
2022/03/18 11:54:16;;;;;;;11.60;6.62;;;;;;;3.83;32.61;102208.19;1736636;82;20924;-72
2022/03/18 11:56:54;;;;;;;16.97;5.85;;;;;;;3.87;33.40;102208.06;1707415;82;21551;-70
2022/03/18 11:59:32;;;;;;;10.53;5.95;;;;;;;4.09;33.54;102211.12;1701271;83;21585;-72
2022/03/18 12:02:09;;;;;;;13.13;7.60;;;;;;;4.34;33.31;102206.37;1741347;82;22101;-72